sensor_id;sensor_type;location;lat;lon;timestamp;P1;durP1;ratioP1;P2;durP2;ratioP2
13651;SDS011;6899;51.546;6.912;2023-04-15T00:00:31;0.00;;;0.00;;
13651;SDS011;6899;51.546;6.912;2023-04-15T00:02:58;0.00;;;0.00;;
13651;SDS011;6899;51.546;6.912;2023-04-15T00:05:26;0.00;;;0.00;;
13651;SDS011;6899;51.546;6.912;2023-04-15T00:07:56;0.05;;;0.05;;
13651;SDS011;6899;51.546;6.912;2023-04-15T00:10:23;0.00;;;0.00;;
13651;SDS011;6899;51.546;6.912;2023-04-15T00:12:50;0.00;;;0.00;;
13651;SDS011;6899;51.546;6.912;2023-04-15T00:15:17;0.00;;;0.00;;
13651;SDS011;6899;51.546;6.912;2023-04-15T00:17:44;0.08;;;0.08;;
13651;SDS011;6899;51.546;6.912;2023-04-15T00:20:11;0.00;;;0.00;;
13651;SDS011;6899;51.546;6.912;2023-04-15T00:22:41;0.00;;;0.00;;
13651;SDS011;6899;51.546;6.912;2023-04-15T00:25:12;0.00;;;0.00;;
13651;SDS011;6899;51.546;6.912;2023-04-15T00:27:39;0.00;;;0.00;;
13651;SDS011;6899;51.546;6.912;2023-04-15T00:30:06;0.00;;;0.00;;
13651;SDS011;6899;51.546;6.912;2023-04-15T00:32:33;0.00;;;0.00;;
13651;SDS011;6899;51.546;6.912;2023-04-15T00:35:00;0.00;;;0.00;;
13651;SDS011;6899;51.546;6.912;2023-04-15T00:37:28;0.10;;;0.10;;
13651;SDS011;6899;51.546;6.912;2023-04-15T00:39:54;0.00;;;0.00;;
13651;SDS011;6899;51.546;6.912;2023-04-15T00:42:25;0.00;;;0.00;;
13651;SDS011;6899;51.546;6.912;2023-04-15T00:44:53;0.00;;;0.00;;
13651;SDS011;6899;51.546;6.912;2023-04-15T00:47:23;0.00;;;0.00;;
13651;SDS011;6899;51.546;6.912;2023-04-15T00:49:50;0.00;;;0.00;;
13651;SDS011;6899;51.546;6.912;2023-04-15T00:52:16;0.00;;;0.00;;
13651;SDS011;6899;51.546;6.912;2023-04-15T00:54:46;0.00;;;0.00;;
13651;SDS011;6899;51.546;6.912;2023-04-15T00:57:13;0.00;;;0.00;;
13651;SDS011;6899;51.546;6.912;2023-04-15T00:59:41;0.00;;;0.00;;
13651;SDS011;6899;51.546;6.912;2023-04-15T01:02:08;0.00;;;0.00;;
13651;SDS011;6899;51.546;6.912;2023-04-15T01:04:35;0.15;;;0.15;;
13651;SDS011;6899;51.546;6.912;2023-04-15T01:07:02;3.00;;;1.70;;
13651;SDS011;6899;51.546;6.912;2023-04-15T01:09:30;0.03;;;0.03;;
13651;SDS011;6899;51.546;6.912;2023-04-15T01:11:57;7.73;;;4.93;;
13651;SDS011;6899;51.546;6.912;2023-04-15T01:14:27;9.97;;;6.30;;
13651;SDS011;6899;51.546;6.912;2023-04-15T01:16:56;8.67;;;4.67;;
13651;SDS011;6899;51.546;6.912;2023-04-15T01:19:22;4.57;;;3.77;;
13651;SDS011;6899;51.546;6.912;2023-04-15T01:21:49;0.97;;;0.90;;
13651;SDS011;6899;51.546;6.912;2023-04-15T01:24:16;0.47;;;0.47;;
13651;SDS011;6899;51.546;6.912;2023-04-15T01:26:45;0.53;;;0.53;;
13651;SDS011;6899;51.546;6.912;2023-04-15T01:29:15;0.00;;;0.00;;
13651;SDS011;6899;51.546;6.912;2023-04-15T01:31:47;0.10;;;0.10;;
13651;SDS011;6899;51.546;6.912;2023-04-15T01:34:15;0.43;;;0.43;;
13651;SDS011;6899;51.546;6.912;2023-04-15T01:36:42;0.00;;;0.00;;
13651;SDS011;6899;51.546;6.912;2023-04-15T01:39:09;0.00;;;0.00;;
13651;SDS011;6899;51.546;6.912;2023-04-15T01:41:36;0.00;;;0.00;;
13651;SDS011;6899;51.546;6.912;2023-04-15T01:44:04;0.50;;;0.43;;
13651;SDS011;6899;51.546;6.912;2023-04-15T01:46:43;0.00;;;0.00;;
13651;SDS011;6899;51.546;6.912;2023-04-15T01:49:10;0.23;;;0.23;;
13651;SDS011;6899;51.546;6.912;2023-04-15T01:51:37;0.17;;;0.17;;
13651;SDS011;6899;51.546;6.912;2023-04-15T01:54:04;7.50;;;4.27;;
13651;SDS011;6899;51.546;6.912;2023-04-15T01:56:31;13.50;;;4.77;;
13651;SDS011;6899;51.546;6.912;2023-04-15T01:58:57;5.67;;;3.13;;
13651;SDS011;6899;51.546;6.912;2023-04-15T02:01:25;9.00;;;5.50;;
13651;SDS011;6899;51.546;6.912;2023-04-15T02:03:52;6.47;;;4.53;;
13651;SDS011;6899;51.546;6.912;2023-04-15T02:06:19;9.37;;;5.27;;
13651;SDS011;6899;51.546;6.912;2023-04-15T02:08:46;8.70;;;5.17;;
13651;SDS011;6899;51.546;6.912;2023-04-15T02:11:12;2.15;;;1.33;;
13651;SDS011;6899;51.546;6.912;2023-04-15T02:13:39;10.17;;;5.47;;
13651;SDS011;6899;51.546;6.912;2023-04-15T02:16:14;9.27;;;6.23;;
13651;SDS011;6899;51.546;6.912;2023-04-15T02:18:43;4.13;;;2.57;;
13651;SDS011;6899;51.546;6.912;2023-04-15T02:21:09;8.23;;;3.93;;
13651;SDS011;6899;51.546;6.912;2023-04-15T02:23:36;10.83;;;7.13;;
13651;SDS011;6899;51.546;6.912;2023-04-15T02:26:06;8.27;;;5.00;;
13651;SDS011;6899;51.546;6.912;2023-04-15T02:28:33;6.03;;;3.30;;
13651;SDS011;6899;51.546;6.912;2023-04-15T02:30:59;0.83;;;0.83;;
13651;SDS011;6899;51.546;6.912;2023-04-15T02:33:30;10.77;;;4.60;;
13651;SDS011;6899;51.546;6.912;2023-04-15T02:35:58;6.43;;;3.83;;
13651;SDS011;6899;51.546;6.912;2023-04-15T02:38:25;10.07;;;5.53;;
13651;SDS011;6899;51.546;6.912;2023-04-15T02:40:52;0.63;;;0.63;;
13651;SDS011;6899;51.546;6.912;2023-04-15T02:43:21;0.00;;;0.00;;
13651;SDS011;6899;51.546;6.912;2023-04-15T02:45:48;13.37;;;5.70;;
13651;SDS011;6899;51.546;6.912;2023-04-15T02:48:15;0.43;;;0.43;;
13651;SDS011;6899;51.546;6.912;2023-04-15T02:50:44;1.10;;;0.60;;
13651;SDS011;6899;51.546;6.912;2023-04-15T02:53:13;3.77;;;1.60;;
13651;SDS011;6899;51.546;6.912;2023-04-15T02:55:40;0.00;;;0.00;;
13651;SDS011;6899;51.546;6.912;2023-04-15T02:58:09;0.07;;;0.07;;
13651;SDS011;6899;51.546;6.912;2023-04-15T03:00:36;0.00;;;0.00;;
13651;SDS011;6899;51.546;6.912;2023-04-15T03:03:03;6.77;;;3.70;;
13651;SDS011;6899;51.546;6.912;2023-04-15T03:05:34;13.97;;;5.00;;
13651;SDS011;6899;51.546;6.912;2023-04-15T03:08:03;6.27;;;3.33;;
13651;SDS011;6899;51.546;6.912;2023-04-15T03:10:32;2.33;;;1.37;;
13651;SDS011;6899;51.546;6.912;2023-04-15T03:12:58;0.10;;;0.10;;
13651;SDS011;6899;51.546;6.912;2023-04-15T03:15:25;5.47;;;2.80;;
13651;SDS011;6899;51.546;6.912;2023-04-15T03:17:52;0.43;;;0.27;;
13651;SDS011;6899;51.546;6.912;2023-04-15T03:20:19;0.00;;;0.00;;
13651;SDS011;6899;51.546;6.912;2023-04-15T03:22:46;0.17;;;0.17;;
13651;SDS011;6899;51.546;6.912;2023-04-15T03:25:13;0.50;;;0.50;;
13651;SDS011;6899;51.546;6.912;2023-04-15T03:27:41;0.00;;;0.00;;
13651;SDS011;6899;51.546;6.912;2023-04-15T03:30:08;0.10;;;0.10;;
13651;SDS011;6899;51.546;6.912;2023-04-15T03:32:35;0.03;;;0.03;;
13651;SDS011;6899;51.546;6.912;2023-04-15T03:35:02;1.17;;;1.07;;
13651;SDS011;6899;51.546;6.912;2023-04-15T03:37:29;1.20;;;0.60;;
13651;SDS011;6899;51.546;6.912;2023-04-15T03:39:56;1.23;;;1.07;;
13651;SDS011;6899;51.546;6.912;2023-04-15T03:42:22;0.20;;;0.20;;
13651;SDS011;6899;51.546;6.912;2023-04-15T03:44:51;0.57;;;0.57;;
13651;SDS011;6899;51.546;6.912;2023-04-15T03:47:17;0.00;;;0.00;;
13651;SDS011;6899;51.546;6.912;2023-04-15T03:49:44;0.00;;;0.00;;
13651;SDS011;6899;51.546;6.912;2023-04-15T03:52:11;4.43;;;2.53;;
13651;SDS011;6899;51.546;6.912;2023-04-15T03:54:38;6.00;;;3.73;;
13651;SDS011;6899;51.546;6.912;2023-04-15T03:57:07;1.43;;;0.60;;
13651;SDS011;6899;51.546;6.912;2023-04-15T03:59:34;13.57;;;5.23;;
13651;SDS011;6899;51.546;6.912;2023-04-15T04:02:02;8.87;;;5.97;;
13651;SDS011;6899;51.546;6.912;2023-04-15T04:04:32;2.47;;;1.87;;
13651;SDS011;6899;51.546;6.912;2023-04-15T04:06:58;0.00;;;0.00;;
13651;SDS011;6899;51.546;6.912;2023-04-15T04:09:25;0.00;;;0.00;;
13651;SDS011;6899;51.546;6.912;2023-04-15T04:11:52;0.00;;;0.00;;
13651;SDS011;6899;51.546;6.912;2023-04-15T04:14:18;0.00;;;0.00;;
13651;SDS011;6899;51.546;6.912;2023-04-15T04:16:53;0.00;;;0.00;;
13651;SDS011;6899;51.546;6.912;2023-04-15T04:19:27;0.10;;;0.10;;
13651;SDS011;6899;51.546;6.912;2023-04-15T04:21:54;0.00;;;0.00;;
13651;SDS011;6899;51.546;6.912;2023-04-15T04:24:21;0.00;;;0.00;;
13651;SDS011;6899;51.546;6.912;2023-04-15T04:26:47;0.00;;;0.00;;
13651;SDS011;6899;51.546;6.912;2023-04-15T04:29:14;0.00;;;0.00;;
13651;SDS011;6899;51.546;6.912;2023-04-15T04:31:41;2.03;;;1.33;;
13651;SDS011;6899;51.546;6.912;2023-04-15T04:34:08;10.37;;;5.90;;
13651;SDS011;6899;51.546;6.912;2023-04-15T04:36:36;14.93;;;6.03;;
13651;SDS011;6899;51.546;6.912;2023-04-15T04:39:02;11.43;;;6.43;;
13651;SDS011;6899;51.546;6.912;2023-04-15T04:41:29;3.90;;;2.77;;
13651;SDS011;6899;51.546;6.912;2023-04-15T04:43:56;6.83;;;3.00;;
13651;SDS011;6899;51.546;6.912;2023-04-15T04:46:23;1.03;;;0.93;;
13651;SDS011;6899;51.546;6.912;2023-04-15T04:48:49;0.00;;;0.00;;
13651;SDS011;6899;51.546;6.912;2023-04-15T04:51:16;2.20;;;1.83;;
13651;SDS011;6899;51.546;6.912;2023-04-15T04:53:45;8.13;;;4.10;;
13651;SDS011;6899;51.546;6.912;2023-04-15T04:56:11;8.60;;;5.90;;
13651;SDS011;6899;51.546;6.912;2023-04-15T04:58:38;9.97;;;5.67;;
13651;SDS011;6899;51.546;6.912;2023-04-15T05:01:05;7.07;;;4.53;;
13651;SDS011;6899;51.546;6.912;2023-04-15T05:03:33;11.37;;;6.20;;
13651;SDS011;6899;51.546;6.912;2023-04-15T05:06:00;7.63;;;3.80;;
13651;SDS011;6899;51.546;6.912;2023-04-15T05:08:30;5.50;;;2.90;;
13651;SDS011;6899;51.546;6.912;2023-04-15T05:10:58;6.80;;;2.90;;
13651;SDS011;6899;51.546;6.912;2023-04-15T05:13:24;1.73;;;0.87;;
13651;SDS011;6899;51.546;6.912;2023-04-15T05:15:55;0.20;;;0.20;;
13651;SDS011;6899;51.546;6.912;2023-04-15T05:18:21;2.17;;;1.93;;
13651;SDS011;6899;51.546;6.912;2023-04-15T05:20:48;1.40;;;1.03;;
13651;SDS011;6899;51.546;6.912;2023-04-15T05:23:15;0.83;;;0.83;;
13651;SDS011;6899;51.546;6.912;2023-04-15T05:25:42;0.53;;;0.40;;
13651;SDS011;6899;51.546;6.912;2023-04-15T05:28:10;1.30;;;0.53;;
13651;SDS011;6899;51.546;6.912;2023-04-15T05:30:37;3.47;;;2.20;;
13651;SDS011;6899;51.546;6.912;2023-04-15T05:33:08;7.23;;;3.73;;
13651;SDS011;6899;51.546;6.912;2023-04-15T05:35:37;4.33;;;1.77;;
13651;SDS011;6899;51.546;6.912;2023-04-15T05:38:04;4.37;;;2.90;;
13651;SDS011;6899;51.546;6.912;2023-04-15T05:40:30;4.43;;;2.23;;
13651;SDS011;6899;51.546;6.912;2023-04-15T05:43:00;0.35;;;0.28;;
13651;SDS011;6899;51.546;6.912;2023-04-15T05:45:29;2.03;;;1.03;;
13651;SDS011;6899;51.546;6.912;2023-04-15T05:47:55;12.25;;;7.43;;
13651;SDS011;6899;51.546;6.912;2023-04-15T05:50:22;10.77;;;6.10;;
13651;SDS011;6899;51.546;6.912;2023-04-15T05:52:49;8.40;;;4.13;;
13651;SDS011;6899;51.546;6.912;2023-04-15T05:55:16;6.93;;;4.50;;
13651;SDS011;6899;51.546;6.912;2023-04-15T05:57:42;6.93;;;4.17;;
13651;SDS011;6899;51.546;6.912;2023-04-15T06:00:10;17.63;;;9.88;;
13651;SDS011;6899;51.546;6.912;2023-04-15T06:02:38;16.38;;;7.10;;
13651;SDS011;6899;51.546;6.912;2023-04-15T06:05:05;16.73;;;8.82;;
13651;SDS011;6899;51.546;6.912;2023-04-15T06:07:34;13.45;;;6.63;;
13651;SDS011;6899;51.546;6.912;2023-04-15T06:10:01;0.25;;;0.25;;
13651;SDS011;6899;51.546;6.912;2023-04-15T06:12:27;0.10;;;0.10;;
13651;SDS011;6899;51.546;6.912;2023-04-15T06:14:55;0.00;;;0.00;;
13651;SDS011;6899;51.546;6.912;2023-04-15T06:17:22;0.00;;;0.00;;
13651;SDS011;6899;51.546;6.912;2023-04-15T06:19:50;0.00;;;0.00;;
13651;SDS011;6899;51.546;6.912;2023-04-15T06:22:19;0.30;;;0.30;;
13651;SDS011;6899;51.546;6.912;2023-04-15T06:24:46;0.00;;;0.00;;
13651;SDS011;6899;51.546;6.912;2023-04-15T06:27:14;0.00;;;0.00;;
13651;SDS011;6899;51.546;6.912;2023-04-15T06:29:41;0.00;;;0.00;;
13651;SDS011;6899;51.546;6.912;2023-04-15T06:32:10;0.00;;;0.00;;
13651;SDS011;6899;51.546;6.912;2023-04-15T06:34:37;0.00;;;0.00;;
13651;SDS011;6899;51.546;6.912;2023-04-15T06:37:05;0.00;;;0.00;;
13651;SDS011;6899;51.546;6.912;2023-04-15T06:39:34;0.00;;;0.00;;
13651;SDS011;6899;51.546;6.912;2023-04-15T06:42:01;0.00;;;0.00;;
13651;SDS011;6899;51.546;6.912;2023-04-15T06:44:28;0.00;;;0.00;;
13651;SDS011;6899;51.546;6.912;2023-04-15T06:46:55;0.10;;;0.10;;
13651;SDS011;6899;51.546;6.912;2023-04-15T06:49:22;0.00;;;0.00;;
13651;SDS011;6899;51.546;6.912;2023-04-15T06:51:48;0.00;;;0.00;;
13651;SDS011;6899;51.546;6.912;2023-04-15T06:54:16;1.02;;;0.90;;
13651;SDS011;6899;51.546;6.912;2023-04-15T06:56:43;0.00;;;0.00;;
13651;SDS011;6899;51.546;6.912;2023-04-15T06:59:10;0.00;;;0.00;;
13651;SDS011;6899;51.546;6.912;2023-04-15T07:01:37;1.45;;;1.05;;
13651;SDS011;6899;51.546;6.912;2023-04-15T07:04:03;15.98;;;9.10;;
13651;SDS011;6899;51.546;6.912;2023-04-15T07:06:30;13.15;;;8.13;;
13651;SDS011;6899;51.546;6.912;2023-04-15T07:08:57;11.48;;;6.55;;
13651;SDS011;6899;51.546;6.912;2023-04-15T07:11:26;9.90;;;6.20;;
13651;SDS011;6899;51.546;6.912;2023-04-15T07:13:53;10.18;;;5.13;;
13651;SDS011;6899;51.546;6.912;2023-04-15T07:16:20;9.77;;;6.15;;
13651;SDS011;6899;51.546;6.912;2023-04-15T07:18:47;10.23;;;6.43;;
13651;SDS011;6899;51.546;6.912;2023-04-15T07:21:13;9.23;;;5.60;;
13651;SDS011;6899;51.546;6.912;2023-04-15T07:23:40;9.52;;;6.15;;
13651;SDS011;6899;51.546;6.912;2023-04-15T07:26:07;9.27;;;5.80;;
13651;SDS011;6899;51.546;6.912;2023-04-15T07:28:36;10.88;;;6.45;;
13651;SDS011;6899;51.546;6.912;2023-04-15T07:31:03;9.02;;;6.38;;
13651;SDS011;6899;51.546;6.912;2023-04-15T07:33:30;10.73;;;5.95;;
13651;SDS011;6899;51.546;6.912;2023-04-15T07:35:56;11.00;;;6.70;;
13651;SDS011;6899;51.546;6.912;2023-04-15T07:38:23;11.65;;;6.85;;
13651;SDS011;6899;51.546;6.912;2023-04-15T07:40:50;11.27;;;7.03;;
13651;SDS011;6899;51.546;6.912;2023-04-15T07:43:18;11.45;;;6.93;;
13651;SDS011;6899;51.546;6.912;2023-04-15T07:45:46;11.73;;;7.50;;
13651;SDS011;6899;51.546;6.912;2023-04-15T07:48:13;11.43;;;7.30;;
13651;SDS011;6899;51.546;6.912;2023-04-15T07:50:43;11.93;;;6.68;;
13651;SDS011;6899;51.546;6.912;2023-04-15T07:53:09;10.13;;;6.50;;
13651;SDS011;6899;51.546;6.912;2023-04-15T07:55:36;9.10;;;5.93;;
13651;SDS011;6899;51.546;6.912;2023-04-15T07:58:03;8.48;;;5.32;;
13651;SDS011;6899;51.546;6.912;2023-04-15T08:00:30;8.25;;;5.35;;
13651;SDS011;6899;51.546;6.912;2023-04-15T08:02:58;9.20;;;5.88;;
13651;SDS011;6899;51.546;6.912;2023-04-15T08:05:25;8.88;;;5.57;;
13651;SDS011;6899;51.546;6.912;2023-04-15T08:07:54;8.73;;;6.28;;
13651;SDS011;6899;51.546;6.912;2023-04-15T08:10:21;10.77;;;6.00;;
13651;SDS011;6899;51.546;6.912;2023-04-15T08:12:48;8.10;;;5.18;;
13651;SDS011;6899;51.546;6.912;2023-04-15T08:15:18;8.38;;;5.00;;
13651;SDS011;6899;51.546;6.912;2023-04-15T08:17:45;8.43;;;5.35;;
13651;SDS011;6899;51.546;6.912;2023-04-15T08:20:19;6.95;;;4.82;;
13651;SDS011;6899;51.546;6.912;2023-04-15T08:22:46;6.13;;;4.10;;
13651;SDS011;6899;51.546;6.912;2023-04-15T08:25:15;5.65;;;3.80;;
13651;SDS011;6899;51.546;6.912;2023-04-15T08:27:42;5.55;;;4.00;;
13651;SDS011;6899;51.546;6.912;2023-04-15T08:30:12;8.63;;;4.15;;
13651;SDS011;6899;51.546;6.912;2023-04-15T08:32:40;5.88;;;4.00;;
13651;SDS011;6899;51.546;6.912;2023-04-15T08:35:11;4.75;;;3.65;;
13651;SDS011;6899;51.546;6.912;2023-04-15T08:37:39;4.47;;;3.45;;
13651;SDS011;6899;51.546;6.912;2023-04-15T08:40:18;4.72;;;3.40;;
13651;SDS011;6899;51.546;6.912;2023-04-15T08:42:47;4.60;;;3.28;;
13651;SDS011;6899;51.546;6.912;2023-04-15T08:45:17;4.97;;;3.28;;
13651;SDS011;6899;51.546;6.912;2023-04-15T08:47:45;8.38;;;4.60;;
13651;SDS011;6899;51.546;6.912;2023-04-15T08:50:18;5.63;;;4.10;;
13651;SDS011;6899;51.546;6.912;2023-04-15T08:52:47;6.32;;;3.95;;
13651;SDS011;6899;51.546;6.912;2023-04-15T08:55:14;4.57;;;2.40;;
13651;SDS011;6899;51.546;6.912;2023-04-15T08:57:43;5.53;;;3.22;;
13651;SDS011;6899;51.546;6.912;2023-04-15T09:00:10;7.05;;;4.00;;
13651;SDS011;6899;51.546;6.912;2023-04-15T09:02:38;4.70;;;2.50;;
13651;SDS011;6899;51.546;6.912;2023-04-15T09:05:07;3.83;;;1.95;;
13651;SDS011;6899;51.546;6.912;2023-04-15T09:07:36;0.20;;;0.20;;
13651;SDS011;6899;51.546;6.912;2023-04-15T09:10:05;2.17;;;1.50;;
13651;SDS011;6899;51.546;6.912;2023-04-15T09:12:33;3.22;;;2.15;;
13651;SDS011;6899;51.546;6.912;2023-04-15T09:15:01;6.55;;;4.10;;
13651;SDS011;6899;51.546;6.912;2023-04-15T09:17:27;4.40;;;3.75;;
13651;SDS011;6899;51.546;6.912;2023-04-15T09:20:07;5.82;;;4.05;;
13651;SDS011;6899;51.546;6.912;2023-04-15T09:22:34;5.78;;;3.75;;
13651;SDS011;6899;51.546;6.912;2023-04-15T09:25:02;6.43;;;4.28;;
13651;SDS011;6899;51.546;6.912;2023-04-15T09:27:50;3.83;;;2.17;;
13651;SDS011;6899;51.546;6.912;2023-04-15T09:30:18;0.10;;;0.10;;
13651;SDS011;6899;51.546;6.912;2023-04-15T09:32:49;2.72;;;1.38;;
13651;SDS011;6899;51.546;6.912;2023-04-15T09:35:20;3.25;;;2.55;;
13651;SDS011;6899;51.546;6.912;2023-04-15T09:37:47;4.40;;;3.38;;
13651;SDS011;6899;51.546;6.912;2023-04-15T09:40:16;2.75;;;1.95;;
13651;SDS011;6899;51.546;6.912;2023-04-15T09:42:57;0.77;;;0.77;;
13651;SDS011;6899;51.546;6.912;2023-04-15T09:45:24;1.02;;;0.90;;
13651;SDS011;6899;51.546;6.912;2023-04-15T09:47:52;0.28;;;0.28;;
13651;SDS011;6899;51.546;6.912;2023-04-15T09:50:19;1.02;;;0.73;;
13651;SDS011;6899;51.546;6.912;2023-04-15T09:52:46;1.38;;;0.93;;
13651;SDS011;6899;51.546;6.912;2023-04-15T09:55:13;0.00;;;0.00;;
13651;SDS011;6899;51.546;6.912;2023-04-15T09:57:42;0.00;;;0.00;;
13651;SDS011;6899;51.546;6.912;2023-04-15T10:00:11;0.50;;;0.50;;
13651;SDS011;6899;51.546;6.912;2023-04-15T10:02:44;0.63;;;0.63;;
13651;SDS011;6899;51.546;6.912;2023-04-15T10:05:13;0.00;;;0.00;;
13651;SDS011;6899;51.546;6.912;2023-04-15T10:07:41;0.00;;;0.00;;
13651;SDS011;6899;51.546;6.912;2023-04-15T10:10:09;0.28;;;0.28;;
13651;SDS011;6899;51.546;6.912;2023-04-15T10:12:39;0.65;;;0.50;;
13651;SDS011;6899;51.546;6.912;2023-04-15T10:15:11;3.28;;;2.28;;
13651;SDS011;6899;51.546;6.912;2023-04-15T10:17:41;2.17;;;1.45;;
13651;SDS011;6899;51.546;6.912;2023-04-15T10:20:09;2.95;;;2.15;;
13651;SDS011;6899;51.546;6.912;2023-04-15T10:22:38;0.32;;;0.32;;
13651;SDS011;6899;51.546;6.912;2023-04-15T10:25:07;5.55;;;3.67;;
13651;SDS011;6899;51.546;6.912;2023-04-15T10:27:35;2.92;;;2.08;;
13651;SDS011;6899;51.546;6.912;2023-04-15T10:30:05;1.55;;;1.45;;
13651;SDS011;6899;51.546;6.912;2023-04-15T10:32:34;3.38;;;2.60;;
13651;SDS011;6899;51.546;6.912;2023-04-15T10:35:01;5.72;;;3.17;;
13651;SDS011;6899;51.546;6.912;2023-04-15T10:37:38;4.85;;;3.53;;
13651;SDS011;6899;51.546;6.912;2023-04-15T10:42:51;4.47;;;2.42;;
13651;SDS011;6899;51.546;6.912;2023-04-15T10:45:18;4.93;;;3.00;;
13651;SDS011;6899;51.546;6.912;2023-04-15T10:47:46;3.92;;;3.00;;
13651;SDS011;6899;51.546;6.912;2023-04-15T10:50:20;3.70;;;2.75;;
13651;SDS011;6899;51.546;6.912;2023-04-15T10:52:49;3.80;;;2.50;;
13651;SDS011;6899;51.546;6.912;2023-04-15T10:55:18;4.45;;;3.17;;
13651;SDS011;6899;51.546;6.912;2023-04-15T10:57:46;2.63;;;1.67;;
13651;SDS011;6899;51.546;6.912;2023-04-15T11:00:18;0.25;;;0.20;;
13651;SDS011;6899;51.546;6.912;2023-04-15T11:02:53;0.43;;;0.43;;
13651;SDS011;6899;51.546;6.912;2023-04-15T11:05:22;0.55;;;0.52;;
13651;SDS011;6899;51.546;6.912;2023-04-15T11:08:09;1.00;;;0.90;;
13651;SDS011;6899;51.546;6.912;2023-04-15T11:13:28;3.85;;;1.85;;
13651;SDS011;6899;51.546;6.912;2023-04-15T11:16:00;5.50;;;3.75;;
13651;SDS011;6899;51.546;6.912;2023-04-15T11:18:29;4.68;;;3.50;;
13651;SDS011;6899;51.546;6.912;2023-04-15T11:20:58;7.25;;;3.45;;
13651;SDS011;6899;51.546;6.912;2023-04-15T11:23:31;0.75;;;0.65;;
13651;SDS011;6899;51.546;6.912;2023-04-15T11:26:00;0.00;;;0.00;;
13651;SDS011;6899;51.546;6.912;2023-04-15T11:28:29;1.50;;;1.40;;
13651;SDS011;6899;51.546;6.912;2023-04-15T11:30:57;0.32;;;0.32;;
13651;SDS011;6899;51.546;6.912;2023-04-15T11:33:32;6.03;;;0.50;;
13651;SDS011;6899;51.546;6.912;2023-04-15T11:35:59;0.08;;;0.08;;
13651;SDS011;6899;51.546;6.912;2023-04-15T11:38:29;0.17;;;0.13;;
13651;SDS011;6899;51.546;6.912;2023-04-15T11:40:56;0.32;;;0.32;;
13651;SDS011;6899;51.546;6.912;2023-04-15T11:43:26;0.52;;;0.52;;
13651;SDS011;6899;51.546;6.912;2023-04-15T11:45:57;3.33;;;2.40;;
13651;SDS011;6899;51.546;6.912;2023-04-15T11:48:35;0.20;;;0.20;;
13651;SDS011;6899;51.546;6.912;2023-04-15T11:51:18;0.63;;;0.43;;
13651;SDS011;6899;51.546;6.912;2023-04-15T11:53:47;1.65;;;1.00;;
13651;SDS011;6899;51.546;6.912;2023-04-15T11:56:18;0.63;;;0.63;;
13651;SDS011;6899;51.546;6.912;2023-04-15T11:58:46;1.92;;;1.13;;
13651;SDS011;6899;51.546;6.912;2023-04-15T12:01:14;1.42;;;0.93;;
13651;SDS011;6899;51.546;6.912;2023-04-15T12:03:44;0.00;;;0.00;;
13651;SDS011;6899;51.546;6.912;2023-04-15T12:06:14;0.15;;;0.15;;
13651;SDS011;6899;51.546;6.912;2023-04-15T12:11:36;2.08;;;1.95;;
13651;SDS011;6899;51.546;6.912;2023-04-15T12:14:11;0.00;;;0.00;;
13651;SDS011;6899;51.546;6.912;2023-04-15T12:16:44;0.00;;;0.00;;
13651;SDS011;6899;51.546;6.912;2023-04-15T12:19:17;0.25;;;0.25;;
13651;SDS011;6899;51.546;6.912;2023-04-15T12:21:50;0.00;;;0.00;;
13651;SDS011;6899;51.546;6.912;2023-04-15T12:24:19;0.00;;;0.00;;
13651;SDS011;6899;51.546;6.912;2023-04-15T12:26:48;0.15;;;0.15;;
13651;SDS011;6899;51.546;6.912;2023-04-15T12:29:16;0.28;;;0.25;;
13651;SDS011;6899;51.546;6.912;2023-04-15T12:31:50;0.70;;;0.70;;
13651;SDS011;6899;51.546;6.912;2023-04-15T12:34:24;0.00;;;0.00;;
13651;SDS011;6899;51.546;6.912;2023-04-15T12:36:53;0.00;;;0.00;;
13651;SDS011;6899;51.546;6.912;2023-04-15T12:39:22;0.00;;;0.00;;
13651;SDS011;6899;51.546;6.912;2023-04-15T12:41:49;0.15;;;0.15;;
13651;SDS011;6899;51.546;6.912;2023-04-15T12:44:16;0.60;;;0.60;;
13651;SDS011;6899;51.546;6.912;2023-04-15T12:46:44;0.20;;;0.10;;
13651;SDS011;6899;51.546;6.912;2023-04-15T12:49:11;1.45;;;0.70;;
13651;SDS011;6899;51.546;6.912;2023-04-15T12:51:40;5.05;;;3.25;;
13651;SDS011;6899;51.546;6.912;2023-04-15T12:54:06;0.70;;;0.65;;
13651;SDS011;6899;51.546;6.912;2023-04-15T12:56:33;3.58;;;1.35;;
13651;SDS011;6899;51.546;6.912;2023-04-15T12:59:00;1.42;;;1.33;;
13651;SDS011;6899;51.546;6.912;2023-04-15T13:01:27;0.45;;;0.25;;
13651;SDS011;6899;51.546;6.912;2023-04-15T13:03:56;0.20;;;0.20;;
13651;SDS011;6899;51.546;6.912;2023-04-15T13:06:23;0.00;;;0.00;;
13651;SDS011;6899;51.546;6.912;2023-04-15T13:08:51;0.30;;;0.30;;
13651;SDS011;6899;51.546;6.912;2023-04-15T13:11:19;1.25;;;1.10;;
13651;SDS011;6899;51.546;6.912;2023-04-15T13:13:46;0.00;;;0.00;;
13651;SDS011;6899;51.546;6.912;2023-04-15T13:16:12;0.00;;;0.00;;
13651;SDS011;6899;51.546;6.912;2023-04-15T13:18:39;2.22;;;1.02;;
13651;SDS011;6899;51.546;6.912;2023-04-15T13:21:06;0.00;;;0.00;;
13651;SDS011;6899;51.546;6.912;2023-04-15T13:23:34;0.70;;;0.70;;
13651;SDS011;6899;51.546;6.912;2023-04-15T13:26:02;0.00;;;0.00;;
13651;SDS011;6899;51.546;6.912;2023-04-15T13:28:29;0.00;;;0.00;;
13651;SDS011;6899;51.546;6.912;2023-04-15T13:30:56;0.80;;;0.80;;
13651;SDS011;6899;51.546;6.912;2023-04-15T13:33:24;0.10;;;0.10;;
13651;SDS011;6899;51.546;6.912;2023-04-15T13:35:51;6.50;;;6.18;;
13651;SDS011;6899;51.546;6.912;2023-04-15T13:38:18;0.10;;;0.10;;
13651;SDS011;6899;51.546;6.912;2023-04-15T13:40:44;0.52;;;0.52;;
13651;SDS011;6899;51.546;6.912;2023-04-15T13:43:12;1.45;;;1.10;;
13651;SDS011;6899;51.546;6.912;2023-04-15T13:45:39;2.63;;;1.10;;
13651;SDS011;6899;51.546;6.912;2023-04-15T13:48:06;0.32;;;0.32;;
13651;SDS011;6899;51.546;6.912;2023-04-15T13:50:33;0.43;;;0.43;;
13651;SDS011;6899;51.546;6.912;2023-04-15T13:53:00;1.08;;;0.63;;
13651;SDS011;6899;51.546;6.912;2023-04-15T13:55:32;1.48;;;0.52;;
13651;SDS011;6899;51.546;6.912;2023-04-15T13:57:59;1.67;;;1.58;;
13651;SDS011;6899;51.546;6.912;2023-04-15T14:00:27;2.67;;;0.80;;
13651;SDS011;6899;51.546;6.912;2023-04-15T14:02:54;0.30;;;0.22;;
13651;SDS011;6899;51.546;6.912;2023-04-15T14:05:21;0.00;;;0.00;;
13651;SDS011;6899;51.546;6.912;2023-04-15T14:07:51;2.53;;;1.65;;
13651;SDS011;6899;51.546;6.912;2023-04-15T14:10:18;0.90;;;0.75;;
13651;SDS011;6899;51.546;6.912;2023-04-15T14:12:44;1.10;;;0.98;;
13651;SDS011;6899;51.546;6.912;2023-04-15T14:15:14;1.73;;;1.05;;
13651;SDS011;6899;51.546;6.912;2023-04-15T14:17:42;0.45;;;0.30;;
13651;SDS011;6899;51.546;6.912;2023-04-15T14:20:12;0.77;;;0.77;;
13651;SDS011;6899;51.546;6.912;2023-04-15T14:22:39;1.60;;;0.85;;
13651;SDS011;6899;51.546;6.912;2023-04-15T14:25:06;0.10;;;0.10;;
13651;SDS011;6899;51.546;6.912;2023-04-15T14:27:33;0.32;;;0.32;;
13651;SDS011;6899;51.546;6.912;2023-04-15T14:30:00;1.13;;;0.80;;
13651;SDS011;6899;51.546;6.912;2023-04-15T14:32:27;0.17;;;0.13;;
13651;SDS011;6899;51.546;6.912;2023-04-15T14:34:58;1.75;;;1.55;;
13651;SDS011;6899;51.546;6.912;2023-04-15T14:37:24;0.30;;;0.30;;
13651;SDS011;6899;51.546;6.912;2023-04-15T14:39:55;0.00;;;0.00;;
13651;SDS011;6899;51.546;6.912;2023-04-15T14:42:21;0.40;;;0.40;;
13651;SDS011;6899;51.546;6.912;2023-04-15T14:44:48;0.00;;;0.00;;
13651;SDS011;6899;51.546;6.912;2023-04-15T14:47:15;1.02;;;0.60;;
13651;SDS011;6899;51.546;6.912;2023-04-15T14:49:42;2.28;;;1.70;;
13651;SDS011;6899;51.546;6.912;2023-04-15T14:52:10;1.00;;;0.90;;
13651;SDS011;6899;51.546;6.912;2023-04-15T14:54:37;0.30;;;0.22;;
13651;SDS011;6899;51.546;6.912;2023-04-15T14:57:04;0.30;;;0.30;;
13651;SDS011;6899;51.546;6.912;2023-04-15T14:59:34;3.67;;;2.90;;
13651;SDS011;6899;51.546;6.912;2023-04-15T15:02:01;0.10;;;0.10;;
13651;SDS011;6899;51.546;6.912;2023-04-15T15:04:27;1.27;;;1.10;;
13651;SDS011;6899;51.546;6.912;2023-04-15T15:06:59;3.88;;;2.20;;
13651;SDS011;6899;51.546;6.912;2023-04-15T15:09:37;7.32;;;3.13;;
13651;SDS011;6899;51.546;6.912;2023-04-15T15:12:04;5.00;;;2.50;;
13651;SDS011;6899;51.546;6.912;2023-04-15T15:14:31;4.15;;;2.88;;